Abel, Alabama
Current Conditions -  °F | °C
As of 4:53 PM on Sunday 21 Dec 2014 (Local Time) from KANB Reporting Station
Overcast Overcast  
Wind Chill: 52°   Ceiling: 1600
Heat Index: 52°   Visibility: 10mi
Dew Point: 46°   Wind: 5mph
Humidity: 80%   Direction: 90°E
Pressure: 30.07"   Gusts: NA
Location:  33.4483°N, 85.6826°W
Report Text: KANB 212253Z AUTO 09004KT 10SM OVC016 11/08 A3007 RMK AO2 SLP187 T01110078
Loading
Personal Weather Stations






























Interactive Weather Map New forecast layout! Learn more

10-Day Weather Forecast

Advertisements
Track Severe Weather on mobile